sensor_id;sensor_type;location;lat;lon;timestamp;temperature;humidity
4677;DHT22;2352;48.180;11.478;2022-08-19T00:02:05;22.00;94.20
4677;DHT22;2352;48.180;11.478;2022-08-19T00:05:10;21.80;94.40
4677;DHT22;2352;48.180;11.478;2022-08-19T00:08:14;21.80;94.50
4677;DHT22;2352;48.180;11.478;2022-08-19T00:11:17;21.80;94.50
4677;DHT22;2352;48.180;11.478;2022-08-19T00:14:27;21.70;94.60
4677;DHT22;2352;48.180;11.478;2022-08-19T00:17:33;21.90;94.80
4677;DHT22;2352;48.180;11.478;2022-08-19T00:20:43;21.90;94.30
4677;DHT22;2352;48.180;11.478;2022-08-19T00:23:47;21.80;94.40
4677;DHT22;2352;48.180;11.478;2022-08-19T00:26:51;21.80;94.60
4677;DHT22;2352;48.180;11.478;2022-08-19T00:29:54;21.70;95.00
4677;DHT22;2352;48.180;11.478;2022-08-19T00:32:57;21.70;94.80
4677;DHT22;2352;48.180;11.478;2022-08-19T00:36:04;21.80;94.50
4677;DHT22;2352;48.180;11.478;2022-08-19T00:39:09;21.90;94.60
4677;DHT22;2352;48.180;11.478;2022-08-19T00:42:12;21.80;94.70
4677;DHT22;2352;48.180;11.478;2022-08-19T00:45:18;21.80;94.70
4677;DHT22;2352;48.180;11.478;2022-08-19T00:48:22;21.90;94.60
4677;DHT22;2352;48.180;11.478;2022-08-19T00:51:28;21.90;94.40
4677;DHT22;2352;48.180;11.478;2022-08-19T00:54:34;21.90;94.30
4677;DHT22;2352;48.180;11.478;2022-08-19T00:57:40;21.80;94.80
4677;DHT22;2352;48.180;11.478;2022-08-19T01:00:46;21.90;94.90
4677;DHT22;2352;48.180;11.478;2022-08-19T01:03:50;22.00;94.80
4677;DHT22;2352;48.180;11.478;2022-08-19T01:07:01;21.90;94.90
4677;DHT22;2352;48.180;11.478;2022-08-19T01:10:07;22.00;94.80
4677;DHT22;2352;48.180;11.478;2022-08-19T01:13:13;21.90;94.60
4677;DHT22;2352;48.180;11.478;2022-08-19T01:16:18;21.90;94.70
4677;DHT22;2352;48.180;11.478;2022-08-19T01:19:26;22.00;94.70
4677;DHT22;2352;48.180;11.478;2022-08-19T01:22:33;22.00;94.60
4677;DHT22;2352;48.180;11.478;2022-08-19T01:25:42;22.00;94.50
4677;DHT22;2352;48.180;11.478;2022-08-19T01:28:49;22.00;94.60
4677;DHT22;2352;48.180;11.478;2022-08-19T01:31:52;22.00;94.50
4677;DHT22;2352;48.180;11.478;2022-08-19T01:34:55;22.00;94.70
4677;DHT22;2352;48.180;11.478;2022-08-19T01:38:02;22.00;94.80
4677;DHT22;2352;48.180;11.478;2022-08-19T01:41:10;22.00;94.90
4677;DHT22;2352;48.180;11.478;2022-08-19T01:44:13;22.00;94.70
4677;DHT22;2352;48.180;11.478;2022-08-19T01:47:19;21.90;94.50
4677;DHT22;2352;48.180;11.478;2022-08-19T01:50:22;21.90;94.70
4677;DHT22;2352;48.180;11.478;2022-08-19T01:53:27;21.90;94.70
4677;DHT22;2352;48.180;11.478;2022-08-19T01:56:34;21.80;94.70
4677;DHT22;2352;48.180;11.478;2022-08-19T01:59:37;21.70;94.90
4677;DHT22;2352;48.180;11.478;2022-08-19T02:02:42;21.50;95.10
4677;DHT22;2352;48.180;11.478;2022-08-19T02:05:45;21.60;95.40
4677;DHT22;2352;48.180;11.478;2022-08-19T02:08:49;21.60;95.50
4677;DHT22;2352;48.180;11.478;2022-08-19T02:11:57;21.50;96.00
4677;DHT22;2352;48.180;11.478;2022-08-19T02:15:01;21.50;95.30
4677;DHT22;2352;48.180;11.478;2022-08-19T02:18:04;21.50;95.70
4677;DHT22;2352;48.180;11.478;2022-08-19T02:21:08;21.50;95.60
4677;DHT22;2352;48.180;11.478;2022-08-19T02:24:13;21.40;95.60
4677;DHT22;2352;48.180;11.478;2022-08-19T02:27:16;21.40;95.60
4677;DHT22;2352;48.180;11.478;2022-08-19T02:30:20;21.30;95.70
4677;DHT22;2352;48.180;11.478;2022-08-19T02:33:23;21.30;96.10
4677;DHT22;2352;48.180;11.478;2022-08-19T02:36:27;21.40;95.80
4677;DHT22;2352;48.180;11.478;2022-08-19T02:39:32;21.50;95.50
4677;DHT22;2352;48.180;11.478;2022-08-19T02:42:34;21.40;95.30
4677;DHT22;2352;48.180;11.478;2022-08-19T02:45:39;21.40;95.40
4677;DHT22;2352;48.180;11.478;2022-08-19T02:48:42;21.50;95.30
4677;DHT22;2352;48.180;11.478;2022-08-19T02:51:46;21.40;95.20
4677;DHT22;2352;48.180;11.478;2022-08-19T02:54:50;21.30;95.70
4677;DHT22;2352;48.180;11.478;2022-08-19T02:57:53;21.40;95.60
4677;DHT22;2352;48.180;11.478;2022-08-19T03:00:57;21.50;95.50
4677;DHT22;2352;48.180;11.478;2022-08-19T03:04:02;21.50;95.30
4677;DHT22;2352;48.180;11.478;2022-08-19T03:07:05;21.40;95.40
4677;DHT22;2352;48.180;11.478;2022-08-19T03:10:13;21.50;95.60
4677;DHT22;2352;48.180;11.478;2022-08-19T03:13:17;21.60;95.10
4677;DHT22;2352;48.180;11.478;2022-08-19T03:16:23;21.40;95.40
4677;DHT22;2352;48.180;11.478;2022-08-19T03:19:26;21.40;95.30
4677;DHT22;2352;48.180;11.478;2022-08-19T03:22:30;21.20;95.90
4677;DHT22;2352;48.180;11.478;2022-08-19T03:25:38;21.20;95.90
4677;DHT22;2352;48.180;11.478;2022-08-19T03:28:44;21.20;96.10
4677;DHT22;2352;48.180;11.478;2022-08-19T03:31:59;21.30;96.20
4677;DHT22;2352;48.180;11.478;2022-08-19T03:35:06;21.40;96.00
4677;DHT22;2352;48.180;11.478;2022-08-19T03:38:09;21.40;95.80
4677;DHT22;2352;48.180;11.478;2022-08-19T03:41:15;21.40;95.90
4677;DHT22;2352;48.180;11.478;2022-08-19T03:44:21;21.50;95.90
4677;DHT22;2352;48.180;11.478;2022-08-19T03:47:24;21.50;95.80
4677;DHT22;2352;48.180;11.478;2022-08-19T03:50:27;21.60;95.70
4677;DHT22;2352;48.180;11.478;2022-08-19T03:53:32;21.60;95.60
4677;DHT22;2352;48.180;11.478;2022-08-19T03:56:38;21.60;95.60
4677;DHT22;2352;48.180;11.478;2022-08-19T03:59:41;21.60;95.60
4677;DHT22;2352;48.180;11.478;2022-08-19T04:02:45;21.60;95.50
4677;DHT22;2352;48.180;11.478;2022-08-19T04:06:09;21.60;95.60
4677;DHT22;2352;48.180;11.478;2022-08-19T04:09:14;21.60;95.70
4677;DHT22;2352;48.180;11.478;2022-08-19T04:12:19;21.70;95.50
4677;DHT22;2352;48.180;11.478;2022-08-19T04:15:22;21.70;95.40
4677;DHT22;2352;48.180;11.478;2022-08-19T04:18:25;21.70;95.40
4677;DHT22;2352;48.180;11.478;2022-08-19T04:21:36;21.80;95.30
4677;DHT22;2352;48.180;11.478;2022-08-19T04:24:39;21.80;95.30
4677;DHT22;2352;48.180;11.478;2022-08-19T04:27:44;21.80;95.40
4677;DHT22;2352;48.180;11.478;2022-08-19T04:30:50;21.70;95.00
4677;DHT22;2352;48.180;11.478;2022-08-19T04:33:53;21.70;95.50
4677;DHT22;2352;48.180;11.478;2022-08-19T04:36:58;21.60;95.60
4677;DHT22;2352;48.180;11.478;2022-08-19T04:40:04;21.60;95.50
4677;DHT22;2352;48.180;11.478;2022-08-19T04:43:26;21.40;95.90
4677;DHT22;2352;48.180;11.478;2022-08-19T04:46:29;21.30;96.20
4677;DHT22;2352;48.180;11.478;2022-08-19T04:49:51;21.30;96.30
4677;DHT22;2352;48.180;11.478;2022-08-19T04:52:54;21.40;96.20
4677;DHT22;2352;48.180;11.478;2022-08-19T04:55:59;21.50;95.70
4677;DHT22;2352;48.180;11.478;2022-08-19T04:59:05;21.40;96.20
4677;DHT22;2352;48.180;11.478;2022-08-19T05:02:08;21.40;96.10
4677;DHT22;2352;48.180;11.478;2022-08-19T05:05:11;21.50;96.20
4677;DHT22;2352;48.180;11.478;2022-08-19T05:08:17;21.60;95.90
4677;DHT22;2352;48.180;11.478;2022-08-19T05:11:34;21.60;95.90
4677;DHT22;2352;48.180;11.478;2022-08-19T05:14:42;21.60;95.50
4677;DHT22;2352;48.180;11.478;2022-08-19T05:17:47;21.50;96.00
4677;DHT22;2352;48.180;11.478;2022-08-19T05:21:06;21.50;96.00
4677;DHT22;2352;48.180;11.478;2022-08-19T05:24:27;21.50;96.00
4677;DHT22;2352;48.180;11.478;2022-08-19T05:27:31;21.50;95.80
4677;DHT22;2352;48.180;11.478;2022-08-19T05:30:36;21.50;95.50
4677;DHT22;2352;48.180;11.478;2022-08-19T05:33:48;21.50;95.90
4677;DHT22;2352;48.180;11.478;2022-08-19T05:36:53;21.60;96.00
4677;DHT22;2352;48.180;11.478;2022-08-19T05:39:57;21.60;95.40
4677;DHT22;2352;48.180;11.478;2022-08-19T05:43:01;21.70;95.80
4677;DHT22;2352;48.180;11.478;2022-08-19T05:46:05;21.70;95.30
4677;DHT22;2352;48.180;11.478;2022-08-19T05:49:08;21.70;95.40
4677;DHT22;2352;48.180;11.478;2022-08-19T05:52:13;21.50;95.50
4677;DHT22;2352;48.180;11.478;2022-08-19T05:55:19;21.40;95.90
4677;DHT22;2352;48.180;11.478;2022-08-19T05:58:24;21.60;95.70
4677;DHT22;2352;48.180;11.478;2022-08-19T06:01:30;21.60;95.70
4677;DHT22;2352;48.180;11.478;2022-08-19T06:04:33;21.60;95.60
4677;DHT22;2352;48.180;11.478;2022-08-19T06:07:37;21.60;95.30
4677;DHT22;2352;48.180;11.478;2022-08-19T06:10:40;21.60;95.40
4677;DHT22;2352;48.180;11.478;2022-08-19T06:13:44;21.60;95.60
4677;DHT22;2352;48.180;11.478;2022-08-19T06:16:50;21.70;95.60
4677;DHT22;2352;48.180;11.478;2022-08-19T06:19:53;21.70;95.90
4677;DHT22;2352;48.180;11.478;2022-08-19T06:22:56;21.80;95.50
4677;DHT22;2352;48.180;11.478;2022-08-19T06:26:00;21.80;95.30
4677;DHT22;2352;48.180;11.478;2022-08-19T06:29:05;21.80;95.70
4677;DHT22;2352;48.180;11.478;2022-08-19T06:32:10;21.80;95.40
4677;DHT22;2352;48.180;11.478;2022-08-19T06:35:13;21.70;95.10
4677;DHT22;2352;48.180;11.478;2022-08-19T06:38:16;21.70;95.00
4677;DHT22;2352;48.180;11.478;2022-08-19T06:41:19;21.70;95.00
4677;DHT22;2352;48.180;11.478;2022-08-19T06:44:24;21.70;95.90
4677;DHT22;2352;48.180;11.478;2022-08-19T06:47:29;21.70;95.50
4677;DHT22;2352;48.180;11.478;2022-08-19T06:50:32;21.70;96.00
4677;DHT22;2352;48.180;11.478;2022-08-19T06:53:37;21.70;96.30
4677;DHT22;2352;48.180;11.478;2022-08-19T06:56:41;21.80;96.20
4677;DHT22;2352;48.180;11.478;2022-08-19T06:59:45;21.70;96.80
4677;DHT22;2352;48.180;11.478;2022-08-19T07:02:49;21.80;96.30
4677;DHT22;2352;48.180;11.478;2022-08-19T07:06:03;21.80;96.40
4677;DHT22;2352;48.180;11.478;2022-08-19T07:09:12;21.80;96.60
4677;DHT22;2352;48.180;11.478;2022-08-19T07:12:19;21.80;96.20
4677;DHT22;2352;48.180;11.478;2022-08-19T07:15:23;21.80;96.50
4677;DHT22;2352;48.180;11.478;2022-08-19T07:18:27;21.80;96.50
4677;DHT22;2352;48.180;11.478;2022-08-19T07:21:30;21.50;97.00
4677;DHT22;2352;48.180;11.478;2022-08-19T07:24:38;21.40;97.60
4677;DHT22;2352;48.180;11.478;2022-08-19T07:27:51;21.40;97.70
4677;DHT22;2352;48.180;11.478;2022-08-19T07:30:55;21.50;98.20
4677;DHT22;2352;48.180;11.478;2022-08-19T07:33:59;21.60;97.80
4677;DHT22;2352;48.180;11.478;2022-08-19T07:37:03;21.70;98.30
4677;DHT22;2352;48.180;11.478;2022-08-19T07:40:07;21.80;98.10
4677;DHT22;2352;48.180;11.478;2022-08-19T07:43:11;21.80;97.90
4677;DHT22;2352;48.180;11.478;2022-08-19T07:46:19;21.90;97.60
4677;DHT22;2352;48.180;11.478;2022-08-19T07:49:24;21.90;97.50
4677;DHT22;2352;48.180;11.478;2022-08-19T07:52:27;21.90;97.60
4677;DHT22;2352;48.180;11.478;2022-08-19T07:55:30;21.90;97.30
4677;DHT22;2352;48.180;11.478;2022-08-19T07:58:46;21.90;97.30
4677;DHT22;2352;48.180;11.478;2022-08-19T08:01:49;22.00;97.30
4677;DHT22;2352;48.180;11.478;2022-08-19T08:04:54;22.00;97.40
4677;DHT22;2352;48.180;11.478;2022-08-19T08:08:14;22.00;97.20
4677;DHT22;2352;48.180;11.478;2022-08-19T08:11:35;22.00;97.60
4677;DHT22;2352;48.180;11.478;2022-08-19T08:14:40;22.10;97.00
4677;DHT22;2352;48.180;11.478;2022-08-19T08:17:47;22.10;96.60
4677;DHT22;2352;48.180;11.478;2022-08-19T08:20:53;22.10;96.90
4677;DHT22;2352;48.180;11.478;2022-08-19T08:23:57;22.00;96.80
4677;DHT22;2352;48.180;11.478;2022-08-19T08:27:00;22.00;97.10
4677;DHT22;2352;48.180;11.478;2022-08-19T08:30:14;21.90;96.40
4677;DHT22;2352;48.180;11.478;2022-08-19T08:33:20;21.80;96.70
4677;DHT22;2352;48.180;11.478;2022-08-19T08:36:38;21.90;97.30
4677;DHT22;2352;48.180;11.478;2022-08-19T08:39:43;21.90;97.00
4677;DHT22;2352;48.180;11.478;2022-08-19T08:42:53;21.90;96.50
4677;DHT22;2352;48.180;11.478;2022-08-19T08:46:03;21.80;96.50
4677;DHT22;2352;48.180;11.478;2022-08-19T08:49:20;21.90;97.00
4677;DHT22;2352;48.180;11.478;2022-08-19T08:52:28;21.90;97.30
4677;DHT22;2352;48.180;11.478;2022-08-19T08:55:34;22.00;96.70
4677;DHT22;2352;48.180;11.478;2022-08-19T08:58:45;21.90;96.70
4677;DHT22;2352;48.180;11.478;2022-08-19T09:01:55;21.90;96.60
4677;DHT22;2352;48.180;11.478;2022-08-19T09:04:58;21.90;96.50
4677;DHT22;2352;48.180;11.478;2022-08-19T09:08:08;21.80;96.60
4677;DHT22;2352;48.180;11.478;2022-08-19T09:11:19;21.90;97.40
4677;DHT22;2352;48.180;11.478;2022-08-19T09:14:49;21.90;96.90
4677;DHT22;2352;48.180;11.478;2022-08-19T09:17:53;21.90;96.90
4677;DHT22;2352;48.180;11.478;2022-08-19T09:20:56;21.90;97.10
4677;DHT22;2352;48.180;11.478;2022-08-19T09:24:01;22.00;97.00
4677;DHT22;2352;48.180;11.478;2022-08-19T09:27:04;22.00;97.60
4677;DHT22;2352;48.180;11.478;2022-08-19T09:30:21;21.90;97.30
4677;DHT22;2352;48.180;11.478;2022-08-19T09:33:25;21.90;98.00
4677;DHT22;2352;48.180;11.478;2022-08-19T09:36:31;21.90;98.10
4677;DHT22;2352;48.180;11.478;2022-08-19T09:39:39;21.90;98.20
4677;DHT22;2352;48.180;11.478;2022-08-19T09:42:44;22.00;98.00
4677;DHT22;2352;48.180;11.478;2022-08-19T09:45:53;22.00;98.10
4677;DHT22;2352;48.180;11.478;2022-08-19T09:48:58;22.00;98.40
4677;DHT22;2352;48.180;11.478;2022-08-19T09:52:08;21.90;97.80
4677;DHT22;2352;48.180;11.478;2022-08-19T09:55:15;21.90;98.50
4677;DHT22;2352;48.180;11.478;2022-08-19T09:58:19;21.90;99.10
4677;DHT22;2352;48.180;11.478;2022-08-19T10:01:29;22.00;99.80
4677;DHT22;2352;48.180;11.478;2022-08-19T10:04:32;22.10;99.20
4677;DHT22;2352;48.180;11.478;2022-08-19T10:07:50;22.10;98.70
4677;DHT22;2352;48.180;11.478;2022-08-19T10:10:55;22.10;98.90
4677;DHT22;2352;48.180;11.478;2022-08-19T10:14:00;22.20;99.30
4677;DHT22;2352;48.180;11.478;2022-08-19T10:17:04;22.00;98.40
4677;DHT22;2352;48.180;11.478;2022-08-19T10:20:20;22.00;98.50
4677;DHT22;2352;48.180;11.478;2022-08-19T10:23:23;21.90;98.90
4677;DHT22;2352;48.180;11.478;2022-08-19T10:26:29;21.90;98.80
4677;DHT22;2352;48.180;11.478;2022-08-19T10:29:34;21.90;98.70
4677;DHT22;2352;48.180;11.478;2022-08-19T10:32:47;22.00;99.60
4677;DHT22;2352;48.180;11.478;2022-08-19T10:35:58;22.10;99.90
4677;DHT22;2352;48.180;11.478;2022-08-19T10:39:05;22.00;99.40
4677;DHT22;2352;48.180;11.478;2022-08-19T10:42:10;21.90;99.70
4677;DHT22;2352;48.180;11.478;2022-08-19T10:45:15;22.00;99.90
4677;DHT22;2352;48.180;11.478;2022-08-19T10:48:18;21.90;99.60
4677;DHT22;2352;48.180;11.478;2022-08-19T10:51:22;22.10;99.90
4677;DHT22;2352;48.180;11.478;2022-08-19T10:54:49;22.40;99.90
4677;DHT22;2352;48.180;11.478;2022-08-19T10:58:12;22.60;99.90
4677;DHT22;2352;48.180;11.478;2022-08-19T11:01:15;22.80;99.90
4677;DHT22;2352;48.180;11.478;2022-08-19T11:04:19;22.90;99.80
4677;DHT22;2352;48.180;11.478;2022-08-19T11:07:29;23.00;99.00
4677;DHT22;2352;48.180;11.478;2022-08-19T11:10:32;23.00;98.80
4677;DHT22;2352;48.180;11.478;2022-08-19T11:13:39;23.10;97.60
4677;DHT22;2352;48.180;11.478;2022-08-19T11:16:43;23.10;98.00
4677;DHT22;2352;48.180;11.478;2022-08-19T11:19:46;23.20;98.00
4677;DHT22;2352;48.180;11.478;2022-08-19T11:22:51;23.20;97.80
4677;DHT22;2352;48.180;11.478;2022-08-19T11:25:55;23.20;97.10
4677;DHT22;2352;48.180;11.478;2022-08-19T11:29:00;23.20;96.20
4677;DHT22;2352;48.180;11.478;2022-08-19T11:32:04;23.20;97.00
4677;DHT22;2352;48.180;11.478;2022-08-19T11:35:08;23.30;96.60
4677;DHT22;2352;48.180;11.478;2022-08-19T11:38:12;23.20;96.30
4677;DHT22;2352;48.180;11.478;2022-08-19T11:41:18;23.10;96.50
4677;DHT22;2352;48.180;11.478;2022-08-19T11:44:22;23.20;97.30
4677;DHT22;2352;48.180;11.478;2022-08-19T11:47:25;23.30;95.90
4677;DHT22;2352;48.180;11.478;2022-08-19T11:50:28;23.20;96.10
4677;DHT22;2352;48.180;11.478;2022-08-19T11:53:32;23.10;95.60
4677;DHT22;2352;48.180;11.478;2022-08-19T11:56:37;23.10;96.50
4677;DHT22;2352;48.180;11.478;2022-08-19T11:59:41;23.10;96.20
4677;DHT22;2352;48.180;11.478;2022-08-19T12:02:45;23.10;95.90
4677;DHT22;2352;48.180;11.478;2022-08-19T12:05:48;23.10;95.50
4677;DHT22;2352;48.180;11.478;2022-08-19T12:08:52;23.10;95.90
4677;DHT22;2352;48.180;11.478;2022-08-19T12:11:55;23.10;95.60
4677;DHT22;2352;48.180;11.478;2022-08-19T12:14:59;23.10;95.30
4677;DHT22;2352;48.180;11.478;2022-08-19T12:18:03;23.20;95.80
4677;DHT22;2352;48.180;11.478;2022-08-19T12:21:07;23.10;94.80
4677;DHT22;2352;48.180;11.478;2022-08-19T12:24:11;23.10;95.00
4677;DHT22;2352;48.180;11.478;2022-08-19T12:27:14;23.10;94.90
4677;DHT22;2352;48.180;11.478;2022-08-19T12:30:39;23.00;95.00
4677;DHT22;2352;48.180;11.478;2022-08-19T12:33:42;23.00;95.40
4677;DHT22;2352;48.180;11.478;2022-08-19T12:36:45;23.00;95.20
4677;DHT22;2352;48.180;11.478;2022-08-19T12:39:51;22.90;94.80
4677;DHT22;2352;48.180;11.478;2022-08-19T12:42:54;22.90;94.60
4677;DHT22;2352;48.180;11.478;2022-08-19T12:45:59;22.90;94.30
4677;DHT22;2352;48.180;11.478;2022-08-19T12:49:02;23.00;94.50
4677;DHT22;2352;48.180;11.478;2022-08-19T12:52:25;23.10;94.40
4677;DHT22;2352;48.180;11.478;2022-08-19T12:55:29;23.10;93.90
4677;DHT22;2352;48.180;11.478;2022-08-19T12:58:33;23.30;94.30
4677;DHT22;2352;48.180;11.478;2022-08-19T13:01:38;23.50;95.40
4677;DHT22;2352;48.180;11.478;2022-08-19T13:04:42;23.40;93.30
4677;DHT22;2352;48.180;11.478;2022-08-19T13:07:45;23.30;94.30
4677;DHT22;2352;48.180;11.478;2022-08-19T13:10:48;23.40;94.60
4677;DHT22;2352;48.180;11.478;2022-08-19T13:13:52;23.50;94.30
4677;DHT22;2352;48.180;11.478;2022-08-19T13:16:58;23.40;93.40
4677;DHT22;2352;48.180;11.478;2022-08-19T13:20:01;23.30;94.10
4677;DHT22;2352;48.180;11.478;2022-08-19T13:23:04;23.50;95.10
4677;DHT22;2352;48.180;11.478;2022-08-19T13:26:08;23.80;94.10
4677;DHT22;2352;48.180;11.478;2022-08-19T13:29:11;23.80;93.30
4677;DHT22;2352;48.180;11.478;2022-08-19T13:32:33;23.90;93.20
4677;DHT22;2352;48.180;11.478;2022-08-19T13:35:57;23.90;93.30
4677;DHT22;2352;48.180;11.478;2022-08-19T13:39:02;23.80;92.90
4677;DHT22;2352;48.180;11.478;2022-08-19T13:42:06;23.80;93.40
4677;DHT22;2352;48.180;11.478;2022-08-19T13:45:10;23.80;93.20
4677;DHT22;2352;48.180;11.478;2022-08-19T13:48:14;23.80;92.80
4677;DHT22;2352;48.180;11.478;2022-08-19T13:51:18;23.80;92.90
4677;DHT22;2352;48.180;11.478;2022-08-19T13:54:21;23.80;92.60
4677;DHT22;2352;48.180;11.478;2022-08-19T13:57:24;23.70;93.10
4677;DHT22;2352;48.180;11.478;2022-08-19T14:00:30;23.70;93.20
4677;DHT22;2352;48.180;11.478;2022-08-19T14:03:35;23.80;93.00
4677;DHT22;2352;48.180;11.478;2022-08-19T14:06:38;23.80;92.80
4677;DHT22;2352;48.180;11.478;2022-08-19T14:09:41;23.90;92.90
4677;DHT22;2352;48.180;11.478;2022-08-19T14:12:47;23.80;92.70
4677;DHT22;2352;48.180;11.478;2022-08-19T14:15:50;23.80;92.80
4677;DHT22;2352;48.180;11.478;2022-08-19T14:18:56;23.90;92.80
4677;DHT22;2352;48.180;11.478;2022-08-19T14:21:59;23.80;92.60
4677;DHT22;2352;48.180;11.478;2022-08-19T14:25:02;23.80;92.40
4677;DHT22;2352;48.180;11.478;2022-08-19T14:28:06;23.80;92.40
4677;DHT22;2352;48.180;11.478;2022-08-19T14:31:10;23.80;92.50
4677;DHT22;2352;48.180;11.478;2022-08-19T14:34:15;23.80;92.50
4677;DHT22;2352;48.180;11.478;2022-08-19T14:37:18;23.90;92.20
4677;DHT22;2352;48.180;11.478;2022-08-19T14:40:24;23.90;91.90
4677;DHT22;2352;48.180;11.478;2022-08-19T14:43:28;24.00;92.20
4677;DHT22;2352;48.180;11.478;2022-08-19T14:46:31;23.90;92.10
4677;DHT22;2352;48.180;11.478;2022-08-19T14:49:36;24.00;92.50
4677;DHT22;2352;48.180;11.478;2022-08-19T14:52:45;24.00;92.20
4677;DHT22;2352;48.180;11.478;2022-08-19T14:55:49;23.80;91.80
4677;DHT22;2352;48.180;11.478;2022-08-19T14:58:52;23.80;92.30
4677;DHT22;2352;48.180;11.478;2022-08-19T15:01:56;23.80;92.20
4677;DHT22;2352;48.180;11.478;2022-08-19T15:05:20;23.80;91.80
4677;DHT22;2352;48.180;11.478;2022-08-19T15:08:23;23.70;92.10
4677;DHT22;2352;48.180;11.478;2022-08-19T15:11:27;23.60;92.10
4677;DHT22;2352;48.180;11.478;2022-08-19T15:14:30;23.50;92.40
4677;DHT22;2352;48.180;11.478;2022-08-19T15:17:36;23.50;92.50
4677;DHT22;2352;48.180;11.478;2022-08-19T15:20:56;23.50;92.70
4677;DHT22;2352;48.180;11.478;2022-08-19T15:23:59;23.50;92.50
4677;DHT22;2352;48.180;11.478;2022-08-19T15:27:03;23.50;92.70
4677;DHT22;2352;48.180;11.478;2022-08-19T15:30:08;23.50;93.40
4677;DHT22;2352;48.180;11.478;2022-08-19T15:33:12;23.50;93.80
4677;DHT22;2352;48.180;11.478;2022-08-19T15:36:19;23.60;94.10
4677;DHT22;2352;48.180;11.478;2022-08-19T15:39:22;23.50;94.30
4677;DHT22;2352;48.180;11.478;2022-08-19T15:42:25;23.50;94.40
4677;DHT22;2352;48.180;11.478;2022-08-19T15:45:31;23.40;94.40
4677;DHT22;2352;48.180;11.478;2022-08-19T15:48:34;23.40;95.10
4677;DHT22;2352;48.180;11.478;2022-08-19T15:51:41;23.30;94.50
4677;DHT22;2352;48.180;11.478;2022-08-19T15:54:44;23.30;94.70
4677;DHT22;2352;48.180;11.478;2022-08-19T15:57:47;23.30;94.90
4677;DHT22;2352;48.180;11.478;2022-08-19T16:01:21;23.30;95.30
4677;DHT22;2352;48.180;11.478;2022-08-19T16:04:41;23.30;95.20
4677;DHT22;2352;48.180;11.478;2022-08-19T16:08:03;23.30;95.10
4677;DHT22;2352;48.180;11.478;2022-08-19T16:11:06;23.20;94.40
4677;DHT22;2352;48.180;11.478;2022-08-19T16:14:09;23.20;95.30
4677;DHT22;2352;48.180;11.478;2022-08-19T16:17:12;23.10;94.70
4677;DHT22;2352;48.180;11.478;2022-08-19T16:20:15;23.10;94.90
4677;DHT22;2352;48.180;11.478;2022-08-19T16:23:22;23.00;94.20
4677;DHT22;2352;48.180;11.478;2022-08-19T16:26:25;22.90;94.70
4677;DHT22;2352;48.180;11.478;2022-08-19T16:29:32;22.90;95.20
4677;DHT22;2352;48.180;11.478;2022-08-19T16:32:42;22.90;94.90
4677;DHT22;2352;48.180;11.478;2022-08-19T16:35:45;22.80;95.20
4677;DHT22;2352;48.180;11.478;2022-08-19T16:39:02;22.80;95.10
4677;DHT22;2352;48.180;11.478;2022-08-19T16:42:07;22.90;95.00
4677;DHT22;2352;48.180;11.478;2022-08-19T16:45:10;22.90;95.10
4677;DHT22;2352;48.180;11.478;2022-08-19T16:48:13;22.90;95.10
4677;DHT22;2352;48.180;11.478;2022-08-19T16:51:16;22.80;94.70
4677;DHT22;2352;48.180;11.478;2022-08-19T16:54:21;22.80;94.80
4677;DHT22;2352;48.180;11.478;2022-08-19T16:57:23;22.70;94.80
4677;DHT22;2352;48.180;11.478;2022-08-19T17:00:26;22.70;94.90
4677;DHT22;2352;48.180;11.478;2022-08-19T17:03:30;22.60;95.20
4677;DHT22;2352;48.180;11.478;2022-08-19T17:06:37;22.50;95.30
4677;DHT22;2352;48.180;11.478;2022-08-19T17:09:41;22.50;95.60
4677;DHT22;2352;48.180;11.478;2022-08-19T17:12:47;22.60;95.30
4677;DHT22;2352;48.180;11.478;2022-08-19T17:15:50;22.60;95.30
4677;DHT22;2352;48.180;11.478;2022-08-19T17:18:55;22.60;95.20
4677;DHT22;2352;48.180;11.478;2022-08-19T17:21:59;22.60;95.40
4677;DHT22;2352;48.180;11.478;2022-08-19T17:25:04;22.70;95.40
4677;DHT22;2352;48.180;11.478;2022-08-19T17:28:08;22.60;95.00
4677;DHT22;2352;48.180;11.478;2022-08-19T17:31:11;22.60;95.20
4677;DHT22;2352;48.180;11.478;2022-08-19T17:34:14;22.60;95.40
4677;DHT22;2352;48.180;11.478;2022-08-19T17:37:17;22.60;95.20
4677;DHT22;2352;48.180;11.478;2022-08-19T17:40:22;22.50;95.10
4677;DHT22;2352;48.180;11.478;2022-08-19T17:43:30;22.40;95.20
4677;DHT22;2352;48.180;11.478;2022-08-19T17:46:37;22.40;95.40
4677;DHT22;2352;48.180;11.478;2022-08-19T17:49:40;22.50;95.50
4677;DHT22;2352;48.180;11.478;2022-08-19T17:52:43;22.40;95.70
4677;DHT22;2352;48.180;11.478;2022-08-19T17:55:47;22.40;95.50
4677;DHT22;2352;48.180;11.478;2022-08-19T17:58:51;22.40;95.10
4677;DHT22;2352;48.180;11.478;2022-08-19T18:02:02;22.40;95.20
4677;DHT22;2352;48.180;11.478;2022-08-19T18:05:06;22.40;95.10
4677;DHT22;2352;48.180;11.478;2022-08-19T18:08:09;22.40;94.90
4677;DHT22;2352;48.180;11.478;2022-08-19T18:11:15;22.40;95.00
4677;DHT22;2352;48.180;11.478;2022-08-19T18:14:18;22.40;94.80
4677;DHT22;2352;48.180;11.478;2022-08-19T18:17:21;22.40;94.70
4677;DHT22;2352;48.180;11.478;2022-08-19T18:20:26;22.40;94.90
4677;DHT22;2352;48.180;11.478;2022-08-19T18:23:29;22.40;94.30
4677;DHT22;2352;48.180;11.478;2022-08-19T18:26:47;22.40;94.40
4677;DHT22;2352;48.180;11.478;2022-08-19T18:29:50;22.30;94.20
4677;DHT22;2352;48.180;11.478;2022-08-19T18:32:55;22.30;94.10
4677;DHT22;2352;48.180;11.478;2022-08-19T18:36:00;22.20;94.10
4677;DHT22;2352;48.180;11.478;2022-08-19T18:39:09;22.20;94.30
4677;DHT22;2352;48.180;11.478;2022-08-19T18:42:31;22.20;94.30
4677;DHT22;2352;48.180;11.478;2022-08-19T18:45:51;22.20;94.60
4677;DHT22;2352;48.180;11.478;2022-08-19T18:49:15;22.20;94.50
4677;DHT22;2352;48.180;11.478;2022-08-19T18:52:19;22.10;94.40
4677;DHT22;2352;48.180;11.478;2022-08-19T18:55:26;22.10;94.40
4677;DHT22;2352;48.180;11.478;2022-08-19T18:58:32;22.10;94.20
4677;DHT22;2352;48.180;11.478;2022-08-19T19:01:38;22.00;94.40
4677;DHT22;2352;48.180;11.478;2022-08-19T19:04:42;22.10;94.30
4677;DHT22;2352;48.180;11.478;2022-08-19T19:07:44;22.10;94.20
4677;DHT22;2352;48.180;11.478;2022-08-19T19:10:49;22.10;94.10
4677;DHT22;2352;48.180;11.478;2022-08-19T19:13:53;22.00;94.10
4677;DHT22;2352;48.180;11.478;2022-08-19T19:16:57;21.80;94.60
4677;DHT22;2352;48.180;11.478;2022-08-19T19:20:00;21.80;94.70
4677;DHT22;2352;48.180;11.478;2022-08-19T19:23:03;21.80;94.70
4677;DHT22;2352;48.180;11.478;2022-08-19T19:26:07;21.90;94.70
4677;DHT22;2352;48.180;11.478;2022-08-19T19:29:13;21.70;95.10
4677;DHT22;2352;48.180;11.478;2022-08-19T19:32:19;21.70;94.90
4677;DHT22;2352;48.180;11.478;2022-08-19T19:35:22;21.80;94.90
4677;DHT22;2352;48.180;11.478;2022-08-19T19:38:25;21.80;94.80
4677;DHT22;2352;48.180;11.478;2022-08-19T19:41:28;21.70;94.80
4677;DHT22;2352;48.180;11.478;2022-08-19T19:44:37;21.70;94.80
4677;DHT22;2352;48.180;11.478;2022-08-19T19:47:47;21.70;94.90
4677;DHT22;2352;48.180;11.478;2022-08-19T19:50:50;21.40;95.10
4677;DHT22;2352;48.180;11.478;2022-08-19T19:53:57;21.40;95.40